Georgtown Station, New York
Current Conditions -  °F | °C
As of 5:53 PM on Thursday 18 Dec 2014 (Local Time) from KRME Reporting Station
Overcast Overcast  
Wind Chill: -6°   Ceiling: 1400
Heat Index: -1°   Visibility: 10mi
Dew Point: -2°   Wind: 10mph
Humidity: 92%   Direction: 290°WNW
Pressure: 30.01"   Gusts: NA
Location:  42.8314°N, 75.6471°W
Report Text: KRME 182253Z 29009KT 10SM OVC014 M01/M02 A3001 RMK AO2 SLP166 T10111022
Loading
Personal Weather Stations






























Interactive Weather Map New forecast layout! Learn more

10-Day Weather Forecast

Advertisements
Track Severe Weather on mobile